sensor_id;sensor_type;location;lat;lon;timestamp;pressure;altitude;pressure_sealevel;temperature;humidity
59493;BME280;45497;43.996;22.876;2023-07-30T00:01:05;100740.94;;;22.88;50.93
59493;BME280;45497;43.996;22.876;2023-07-30T00:03:31;100745.88;;;22.91;50.55
59493;BME280;45497;43.996;22.876;2023-07-30T00:05:56;100749.34;;;22.87;50.54
59493;BME280;45497;43.996;22.876;2023-07-30T00:08:22;100743.63;;;22.83;50.68
59493;BME280;45497;43.996;22.876;2023-07-30T00:10:49;100751.44;;;22.85;50.27
59493;BME280;45497;43.996;22.876;2023-07-30T00:13:14;100743.66;;;22.88;50.09
59493;BME280;45497;43.996;22.876;2023-07-30T00:15:40;100749.19;;;22.77;50.61
59493;BME280;45497;43.996;22.876;2023-07-30T00:18:05;100741.81;;;22.72;50.69
59493;BME280;45497;43.996;22.876;2023-07-30T00:20:31;100746.19;;;22.73;50.48
59493;BME280;45497;43.996;22.876;2023-07-30T00:22:56;100744.72;;;22.65;50.82
59493;BME280;45497;43.996;22.876;2023-07-30T00:25:22;100753.97;;;22.69;50.71
59493;BME280;45497;43.996;22.876;2023-07-30T00:27:47;100748.25;;;22.66;50.71
59493;BME280;45497;43.996;22.876;2023-07-30T00:30:13;100753.72;;;22.71;50.76
59493;BME280;45497;43.996;22.876;2023-07-30T00:32:38;100741.34;;;22.75;50.73
59493;BME280;45497;43.996;22.876;2023-07-30T00:35:08;100743.63;;;22.83;50.63
59493;BME280;45497;43.996;22.876;2023-07-30T00:37:34;100741.78;;;22.89;50.45
59493;BME280;45497;43.996;22.876;2023-07-30T00:39:59;100753.16;;;22.91;50.23
59493;BME280;45497;43.996;22.876;2023-07-30T00:42:25;100757.31;;;22.99;49.83
59493;BME280;45497;43.996;22.876;2023-07-30T00:44:50;100753.53;;;23.00;49.64
59493;BME280;45497;43.996;22.876;2023-07-30T00:47:16;100746.34;;;23.05;49.27
59493;BME280;45497;43.996;22.876;2023-07-30T00:49:41;100749.03;;;23.05;49.08
59493;BME280;45497;43.996;22.876;2023-07-30T00:52:07;100745.75;;;23.03;49.33
59493;BME280;45497;43.996;22.876;2023-07-30T00:54:33;100742.72;;;23.00;49.38
59493;BME280;45497;43.996;22.876;2023-07-30T00:56:59;100744.59;;;22.99;49.60
59493;BME280;45497;43.996;22.876;2023-07-30T00:59:25;100740.13;;;23.05;49.09
59493;BME280;45497;43.996;22.876;2023-07-30T01:01:51;100739.34;;;23.09;48.79
59493;BME280;45497;43.996;22.876;2023-07-30T01:04:17;100735.06;;;23.14;48.51
59493;BME280;45497;43.996;22.876;2023-07-30T01:06:43;100737.50;;;23.15;48.45
59493;BME280;45497;43.996;22.876;2023-07-30T01:09:09;100735.91;;;23.14;48.74
59493;BME280;45497;43.996;22.876;2023-07-30T01:11:36;100735.06;;;23.14;48.75
59493;BME280;45497;43.996;22.876;2023-07-30T01:14:04;100743.47;;;23.17;48.44
59493;BME280;45497;43.996;22.876;2023-07-30T01:16:30;100732.94;;;23.16;48.32
59493;BME280;45497;43.996;22.876;2023-07-30T01:18:56;100737.50;;;23.15;48.64
59493;BME280;45497;43.996;22.876;2023-07-30T01:21:24;100738.59;;;23.14;48.64
59493;BME280;45497;43.996;22.876;2023-07-30T01:23:49;100751.59;;;23.17;48.38
59493;BME280;45497;43.996;22.876;2023-07-30T01:26:24;100744.50;;;23.11;48.51
59493;BME280;45497;43.996;22.876;2023-07-30T01:28:54;100738.38;;;22.99;48.96
59493;BME280;45497;43.996;22.876;2023-07-30T01:31:25;100744.28;;;22.96;49.28
59493;BME280;45497;43.996;22.876;2023-07-30T01:33:54;100737.13;;;22.84;49.63
59493;BME280;45497;43.996;22.876;2023-07-30T01:36:21;100749.06;;;22.88;49.62
59493;BME280;45497;43.996;22.876;2023-07-30T01:38:49;100742.09;;;22.93;49.53
59493;BME280;45497;43.996;22.876;2023-07-30T01:41:15;100745.38;;;22.95;49.67
59493;BME280;45497;43.996;22.876;2023-07-30T01:43:41;100743.47;;;22.73;50.19
59493;BME280;45497;43.996;22.876;2023-07-30T01:46:06;100739.66;;;22.52;50.74
59493;BME280;45497;43.996;22.876;2023-07-30T01:48:32;100744.59;;;22.38;51.20
59493;BME280;45497;43.996;22.876;2023-07-30T01:50:57;100745.91;;;22.19;51.57
59493;BME280;45497;43.996;22.876;2023-07-30T01:53:22;100742.97;;;22.20;51.37
59493;BME280;45497;43.996;22.876;2023-07-30T01:55:48;100738.88;;;22.18;51.52
59493;BME280;45497;43.996;22.876;2023-07-30T01:58:13;100748.13;;;22.05;51.95
59493;BME280;45497;43.996;22.876;2023-07-30T02:00:40;100747.47;;;22.14;51.70
59493;BME280;45497;43.996;22.876;2023-07-30T02:03:05;100749.94;;;22.33;50.96
59493;BME280;45497;43.996;22.876;2023-07-30T02:05:31;100752.31;;;22.29;51.22
59493;BME280;45497;43.996;22.876;2023-07-30T02:07:57;100764.00;;;22.01;52.59
59493;BME280;45497;43.996;22.876;2023-07-30T02:10:24;100766.50;;;21.91;53.04
59493;BME280;45497;43.996;22.876;2023-07-30T02:12:50;100761.88;;;21.86;53.16
59493;BME280;45497;43.996;22.876;2023-07-30T02:15:15;100762.78;;;21.92;53.05
59493;BME280;45497;43.996;22.876;2023-07-30T02:17:41;100755.00;;;21.95;53.20
59493;BME280;45497;43.996;22.876;2023-07-30T02:20:07;100746.66;;;21.97;53.42
59493;BME280;45497;43.996;22.876;2023-07-30T02:22:32;100757.47;;;21.97;53.15
59493;BME280;45497;43.996;22.876;2023-07-30T02:24:58;100751.56;;;22.00;53.23
59493;BME280;45497;43.996;22.876;2023-07-30T02:27:23;100760.81;;;22.04;53.34
59493;BME280;45497;43.996;22.876;2023-07-30T02:29:49;100752.97;;;22.03;53.42
59493;BME280;45497;43.996;22.876;2023-07-30T02:32:15;100750.16;;;21.98;53.39
59493;BME280;45497;43.996;22.876;2023-07-30T02:34:41;100757.13;;;21.93;53.85
59493;BME280;45497;43.996;22.876;2023-07-30T02:37:06;100756.88;;;21.95;53.73
59493;BME280;45497;43.996;22.876;2023-07-30T02:39:32;100750.16;;;21.98;53.72
59493;BME280;45497;43.996;22.876;2023-07-30T02:41:57;100752.53;;;21.94;53.85
59493;BME280;45497;43.996;22.876;2023-07-30T02:44:23;100763.25;;;21.89;54.09
59493;BME280;45497;43.996;22.876;2023-07-30T02:46:49;100768.31;;;21.85;54.18
59493;BME280;45497;43.996;22.876;2023-07-30T02:49:14;100761.91;;;21.74;54.63
59493;BME280;45497;43.996;22.876;2023-07-30T02:51:40;100766.50;;;21.74;54.70
59493;BME280;45497;43.996;22.876;2023-07-30T02:54:06;100765.03;;;21.66;54.80
59493;BME280;45497;43.996;22.876;2023-07-30T02:56:32;100766.97;;;21.54;55.42
59493;BME280;45497;43.996;22.876;2023-07-30T02:58:58;100769.44;;;21.44;55.51
59493;BME280;45497;43.996;22.876;2023-07-30T03:01:24;100771.19;;;21.50;55.44
59493;BME280;45497;43.996;22.876;2023-07-30T03:03:49;100767.63;;;21.61;54.88
59493;BME280;45497;43.996;22.876;2023-07-30T03:06:15;100766.09;;;21.65;55.01
59493;BME280;45497;43.996;22.876;2023-07-30T03:08:43;100765.75;;;21.62;55.01
59493;BME280;45497;43.996;22.876;2023-07-30T03:11:08;100768.81;;;21.53;55.34
59493;BME280;45497;43.996;22.876;2023-07-30T03:13:34;100772.94;;;21.56;55.31
59493;BME280;45497;43.996;22.876;2023-07-30T03:15:59;100769.56;;;21.49;55.39
59493;BME280;45497;43.996;22.876;2023-07-30T03:18:25;100764.63;;;21.46;55.33
59493;BME280;45497;43.996;22.876;2023-07-30T03:20:50;100774.72;;;21.50;55.06
59493;BME280;45497;43.996;22.876;2023-07-30T03:23:16;100773.66;;;21.51;55.33
59493;BME280;45497;43.996;22.876;2023-07-30T03:25:41;100773.97;;;21.55;55.19
59493;BME280;45497;43.996;22.876;2023-07-30T03:28:07;100772.13;;;21.55;55.12
59493;BME280;45497;43.996;22.876;2023-07-30T03:30:32;100769.78;;;21.47;55.26
59493;BME280;45497;43.996;22.876;2023-07-30T03:32:57;100765.56;;;21.51;55.27
59493;BME280;45497;43.996;22.876;2023-07-30T03:35:23;100760.25;;;21.56;55.00
59493;BME280;45497;43.996;22.876;2023-07-30T03:37:48;100761.16;;;21.62;54.81
59493;BME280;45497;43.996;22.876;2023-07-30T03:40:14;100768.41;;;21.73;54.69
59493;BME280;45497;43.996;22.876;2023-07-30T03:42:39;100775.31;;;21.69;54.55
59493;BME280;45497;43.996;22.876;2023-07-30T03:45:05;100779.00;;;21.80;54.57
59493;BME280;45497;43.996;22.876;2023-07-30T03:47:31;100776.88;;;21.82;54.37
59493;BME280;45497;43.996;22.876;2023-07-30T03:49:56;100780.25;;;21.89;54.14
59493;BME280;45497;43.996;22.876;2023-07-30T03:52:22;100782.66;;;22.03;54.06
59493;BME280;45497;43.996;22.876;2023-07-30T03:54:47;100784.34;;;22.09;53.96
59493;BME280;45497;43.996;22.876;2023-07-30T03:57:13;100788.22;;;22.13;53.64
59493;BME280;45497;43.996;22.876;2023-07-30T03:59:38;100788.03;;;22.20;53.43
59493;BME280;45497;43.996;22.876;2023-07-30T04:02:04;100780.38;;;22.28;53.57
59493;BME280;45497;43.996;22.876;2023-07-30T04:04:29;100779.91;;;22.31;53.55
59493;BME280;45497;43.996;22.876;2023-07-30T04:06:55;100790.69;;;22.48;53.06
59493;BME280;45497;43.996;22.876;2023-07-30T04:09:20;100772.25;;;22.45;52.99
59493;BME280;45497;43.996;22.876;2023-07-30T04:11:46;100775.19;;;22.61;52.51
59493;BME280;45497;43.996;22.876;2023-07-30T04:14:11;100780.81;;;22.76;52.47
59493;BME280;45497;43.996;22.876;2023-07-30T04:16:37;100784.72;;;22.85;52.34
59493;BME280;45497;43.996;22.876;2023-07-30T04:19:02;100783.28;;;23.00;52.02
59493;BME280;45497;43.996;22.876;2023-07-30T04:21:28;100779.41;;;23.13;51.48
59493;BME280;45497;43.996;22.876;2023-07-30T04:23:53;100776.56;;;23.24;51.40
59493;BME280;45497;43.996;22.876;2023-07-30T04:26:19;100778.41;;;23.41;51.02
59493;BME280;45497;43.996;22.876;2023-07-30T04:28:44;100779.81;;;23.48;50.72
59493;BME280;45497;43.996;22.876;2023-07-30T04:31:09;100791.25;;;23.56;50.73
59493;BME280;45497;43.996;22.876;2023-07-30T04:33:35;100790.47;;;23.60;50.63
59493;BME280;45497;43.996;22.876;2023-07-30T04:36:00;100786.22;;;23.70;50.42
59493;BME280;45497;43.996;22.876;2023-07-30T04:38:26;100793.25;;;23.93;49.65
59493;BME280;45497;43.996;22.876;2023-07-30T04:40:51;100787.59;;;23.94;49.75
59493;BME280;45497;43.996;22.876;2023-07-30T04:43:17;100792.31;;;24.09;49.58
59493;BME280;45497;43.996;22.876;2023-07-30T04:45:42;100790.25;;;24.21;48.92
59493;BME280;45497;43.996;22.876;2023-07-30T04:48:08;100791.63;;;24.24;48.91
59493;BME280;45497;43.996;22.876;2023-07-30T04:50:33;100788.50;;;24.42;48.48
59493;BME280;45497;43.996;22.876;2023-07-30T04:52:59;100795.06;;;24.52;48.03
59493;BME280;45497;43.996;22.876;2023-07-30T04:55:25;100793.78;;;24.54;47.96
59493;BME280;45497;43.996;22.876;2023-07-30T04:57:50;100791.06;;;24.59;47.94
59493;BME280;45497;43.996;22.876;2023-07-30T05:00:16;100787.09;;;24.77;47.52
59493;BME280;45497;43.996;22.876;2023-07-30T05:02:42;100790.69;;;24.88;47.46
59493;BME280;45497;43.996;22.876;2023-07-30T05:05:07;100795.91;;;25.00;47.36
59493;BME280;45497;43.996;22.876;2023-07-30T05:07:33;100798.94;;;25.14;46.92
59493;BME280;45497;43.996;22.876;2023-07-30T05:09:58;100791.94;;;25.23;46.75
59493;BME280;45497;43.996;22.876;2023-07-30T05:12:24;100800.66;;;25.41;46.30
59493;BME280;45497;43.996;22.876;2023-07-30T05:14:49;100799.91;;;25.50;45.96
59493;BME280;45497;43.996;22.876;2023-07-30T05:17:15;100795.84;;;25.58;45.50
59493;BME280;45497;43.996;22.876;2023-07-30T05:19:40;100793.97;;;25.69;45.42
59493;BME280;45497;43.996;22.876;2023-07-30T05:22:05;100799.13;;;25.75;45.06
59493;BME280;45497;43.996;22.876;2023-07-30T05:24:33;100796.16;;;25.82;45.07
59493;BME280;45497;43.996;22.876;2023-07-30T05:26:59;100794.00;;;26.05;44.65
59493;BME280;45497;43.996;22.876;2023-07-30T05:29:24;100796.47;;;26.17;44.36
59493;BME280;45497;43.996;22.876;2023-07-30T05:31:50;100788.28;;;26.27;44.01
59493;BME280;45497;43.996;22.876;2023-07-30T05:34:15;100800.22;;;26.41;43.81
59493;BME280;45497;43.996;22.876;2023-07-30T05:36:41;100797.25;;;26.53;43.70
59493;BME280;45497;43.996;22.876;2023-07-30T05:39:06;100791.53;;;26.55;43.72
59493;BME280;45497;43.996;22.876;2023-07-30T05:41:31;100789.34;;;26.67;43.60
59493;BME280;45497;43.996;22.876;2023-07-30T05:43:57;100790.16;;;26.67;43.58
59493;BME280;45497;43.996;22.876;2023-07-30T05:46:22;100789.63;;;26.65;43.73
59493;BME280;45497;43.996;22.876;2023-07-30T05:48:48;100793.41;;;26.75;43.66
59493;BME280;45497;43.996;22.876;2023-07-30T05:51:13;100791.75;;;26.84;43.50
59493;BME280;45497;43.996;22.876;2023-07-30T05:53:39;100799.31;;;26.97;43.17
59493;BME280;45497;43.996;22.876;2023-07-30T05:56:04;100788.75;;;26.85;43.42
59493;BME280;45497;43.996;22.876;2023-07-30T05:58:30;100784.66;;;26.88;43.84
59493;BME280;45497;43.996;22.876;2023-07-30T06:00:56;100789.28;;;26.87;43.74
59493;BME280;45497;43.996;22.876;2023-07-30T06:03:21;100798.25;;;26.93;43.86
59493;BME280;45497;43.996;22.876;2023-07-30T06:05:47;100805.56;;;27.03;44.26
59493;BME280;45497;43.996;22.876;2023-07-30T06:08:12;100794.34;;;27.09;44.13
59493;BME280;45497;43.996;22.876;2023-07-30T06:10:38;100800.84;;;27.19;44.00
59493;BME280;45497;43.996;22.876;2023-07-30T06:13:04;100785.53;;;27.38;43.94
59493;BME280;45497;43.996;22.876;2023-07-30T06:15:31;100794.94;;;27.56;43.46
59493;BME280;45497;43.996;22.876;2023-07-30T06:17:56;100796.03;;;27.60;43.62
59493;BME280;45497;43.996;22.876;2023-07-30T06:20:22;100789.25;;;27.53;43.70
59493;BME280;45497;43.996;22.876;2023-07-30T06:22:47;100797.13;;;27.59;43.73
59493;BME280;45497;43.996;22.876;2023-07-30T06:25:13;100792.69;;;27.69;43.46
59493;BME280;45497;43.996;22.876;2023-07-30T06:27:38;100793.94;;;27.87;43.62
59493;BME280;45497;43.996;22.876;2023-07-30T06:30:04;100789.69;;;28.10;42.89
59493;BME280;45497;43.996;22.876;2023-07-30T06:32:30;100790.66;;;28.24;42.79
59493;BME280;45497;43.996;22.876;2023-07-30T06:34:55;100784.38;;;28.53;42.60
59493;BME280;45497;43.996;22.876;2023-07-30T06:37:21;100776.41;;;28.62;41.89
59493;BME280;45497;43.996;22.876;2023-07-30T06:39:46;100779.69;;;28.58;42.02
59493;BME280;45497;43.996;22.876;2023-07-30T06:42:12;100778.69;;;28.49;41.70
59493;BME280;45497;43.996;22.876;2023-07-30T06:44:37;100775.88;;;28.59;41.78
59493;BME280;45497;43.996;22.876;2023-07-30T06:47:03;100778.53;;;28.65;41.74
59493;BME280;45497;43.996;22.876;2023-07-30T06:49:28;100770.41;;;28.84;41.60
59493;BME280;45497;43.996;22.876;2023-07-30T06:51:54;100770.22;;;28.99;41.39
59493;BME280;45497;43.996;22.876;2023-07-30T06:54:20;100762.47;;;29.06;41.18
59493;BME280;45497;43.996;22.876;2023-07-30T06:56:46;100767.03;;;29.16;41.01
59493;BME280;45497;43.996;22.876;2023-07-30T06:59:11;100764.91;;;29.08;41.16
59493;BME280;45497;43.996;22.876;2023-07-30T07:01:37;100762.59;;;29.20;41.05
59493;BME280;45497;43.996;22.876;2023-07-30T07:04:03;100756.25;;;29.44;40.72
59493;BME280;45497;43.996;22.876;2023-07-30T07:06:28;100751.16;;;29.56;40.32
59493;BME280;45497;43.996;22.876;2023-07-30T07:08:54;100755.31;;;29.53;40.64
59493;BME280;45497;43.996;22.876;2023-07-30T07:11:19;100755.31;;;29.53;40.45
59493;BME280;45497;43.996;22.876;2023-07-30T07:13:45;100742.50;;;29.68;40.41
59493;BME280;45497;43.996;22.876;2023-07-30T07:16:10;100739.03;;;29.81;40.21
59493;BME280;45497;43.996;22.876;2023-07-30T07:18:36;100736.69;;;29.74;39.87
59493;BME280;45497;43.996;22.876;2023-07-30T07:21:01;100739.88;;;29.96;40.07
59493;BME280;45497;43.996;22.876;2023-07-30T07:23:27;100734.56;;;30.32;39.69
59493;BME280;45497;43.996;22.876;2023-07-30T07:25:52;100740.50;;;30.53;39.49
59493;BME280;45497;43.996;22.876;2023-07-30T07:28:18;100735.50;;;30.41;39.34
59493;BME280;45497;43.996;22.876;2023-07-30T07:30:44;100738.72;;;30.29;39.16
59493;BME280;45497;43.996;22.876;2023-07-30T07:33:10;100729.34;;;30.36;38.92
59493;BME280;45497;43.996;22.876;2023-07-30T07:35:38;100732.38;;;30.48;39.49
59493;BME280;45497;43.996;22.876;2023-07-30T07:38:04;100718.47;;;30.86;39.27
59493;BME280;45497;43.996;22.876;2023-07-30T07:40:29;100727.28;;;30.97;39.08
59493;BME280;45497;43.996;22.876;2023-07-30T07:42:55;100719.38;;;31.09;38.65
59493;BME280;45497;43.996;22.876;2023-07-30T07:45:21;100723.44;;;31.34;38.50
59493;BME280;45497;43.996;22.876;2023-07-30T07:47:46;100711.44;;;31.44;38.29
59493;BME280;45497;43.996;22.876;2023-07-30T07:50:12;100718.00;;;31.57;38.44
59493;BME280;45497;43.996;22.876;2023-07-30T07:52:37;100715.50;;;31.69;37.90
59493;BME280;45497;43.996;22.876;2023-07-30T07:55:04;100708.66;;;31.80;37.53
59493;BME280;45497;43.996;22.876;2023-07-30T07:57:30;100711.44;;;31.89;36.89
59493;BME280;45497;43.996;22.876;2023-07-30T07:59:56;100709.94;;;32.06;36.77
59493;BME280;45497;43.996;22.876;2023-07-30T08:02:21;100710.56;;;32.43;36.30
59493;BME280;45497;43.996;22.876;2023-07-30T08:04:47;100712.56;;;32.19;35.95
59493;BME280;45497;43.996;22.876;2023-07-30T08:07:13;100703.19;;;32.12;36.53
59493;BME280;45497;43.996;22.876;2023-07-30T08:09:38;100708.34;;;32.13;36.14
59493;BME280;45497;43.996;22.876;2023-07-30T08:12:04;100697.25;;;32.18;36.53
59493;BME280;45497;43.996;22.876;2023-07-30T08:14:30;100696.53;;;32.44;36.06
59493;BME280;45497;43.996;22.876;2023-07-30T08:16:56;100709.34;;;32.66;35.94
59493;BME280;45497;43.996;22.876;2023-07-30T08:19:21;100701.97;;;32.75;35.75
59493;BME280;45497;43.996;22.876;2023-07-30T08:21:47;100703.09;;;32.83;35.66
59493;BME280;45497;43.996;22.876;2023-07-30T08:24:12;100706.19;;;32.99;35.32
59493;BME280;45497;43.996;22.876;2023-07-30T08:26:38;100700.03;;;33.11;35.08
59493;BME280;45497;43.996;22.876;2023-07-30T08:29:03;100706.38;;;33.20;35.10
59493;BME280;45497;43.996;22.876;2023-07-30T08:31:31;100709.44;;;33.27;34.70
59493;BME280;45497;43.996;22.876;2023-07-30T08:33:56;100708.81;;;33.39;34.83
59493;BME280;45497;43.996;22.876;2023-07-30T08:36:22;100703.94;;;33.45;33.93
59493;BME280;45497;43.996;22.876;2023-07-30T08:38:47;100697.28;;;33.55;33.42
59493;BME280;45497;43.996;22.876;2023-07-30T08:41:13;100697.94;;;33.69;33.31
59493;BME280;45497;43.996;22.876;2023-07-30T08:43:38;100687.75;;;33.78;32.95
59493;BME280;45497;43.996;22.876;2023-07-30T08:46:04;100690.97;;;33.89;32.81
59493;BME280;45497;43.996;22.876;2023-07-30T08:48:29;100691.75;;;33.89;32.71
59493;BME280;45497;43.996;22.876;2023-07-30T08:50:58;100688.50;;;33.96;32.57
59493;BME280;45497;43.996;22.876;2023-07-30T08:53:25;100685.06;;;33.99;32.75
59493;BME280;45497;43.996;22.876;2023-07-30T08:55:53;100695.41;;;34.11;32.59
59493;BME280;45497;43.996;22.876;2023-07-30T08:58:19;100685.16;;;34.29;32.61
59493;BME280;45497;43.996;22.876;2023-07-30T09:00:45;100684.88;;;34.22;32.41
59493;BME280;45497;43.996;22.876;2023-07-30T09:03:14;100688.19;;;34.36;32.34
59493;BME280;45497;43.996;22.876;2023-07-30T09:05:41;100686.16;;;34.54;32.38
59493;BME280;45497;43.996;22.876;2023-07-30T09:08:07;100672.25;;;34.51;32.76
59493;BME280;45497;43.996;22.876;2023-07-30T09:10:33;100676.41;;;34.57;31.21
59493;BME280;45497;43.996;22.876;2023-07-30T09:12:59;100674.25;;;34.62;30.69
59493;BME280;45497;43.996;22.876;2023-07-30T09:15:32;100674.72;;;34.64;30.80
59493;BME280;45497;43.996;22.876;2023-07-30T09:18:00;100666.91;;;34.75;31.34
59493;BME280;45497;43.996;22.876;2023-07-30T09:20:26;100666.69;;;34.80;30.46
59493;BME280;45497;43.996;22.876;2023-07-30T09:22:52;100670.06;;;34.86;29.88
59493;BME280;45497;43.996;22.876;2023-07-30T09:25:20;100663.50;;;34.78;29.65
59493;BME280;45497;43.996;22.876;2023-07-30T09:27:51;100657.97;;;34.78;30.47
59493;BME280;45497;43.996;22.876;2023-07-30T09:30:25;100655.63;;;34.89;30.31
59493;BME280;45497;43.996;22.876;2023-07-30T09:33:00;100658.97;;;34.95;29.86
59493;BME280;45497;43.996;22.876;2023-07-30T09:35:26;100659.44;;;34.97;30.00
59493;BME280;45497;43.996;22.876;2023-07-30T09:38:02;100656.81;;;35.00;29.46
59493;BME280;45497;43.996;22.876;2023-07-30T09:40:33;100656.63;;;35.06;29.38
59493;BME280;45497;43.996;22.876;2023-07-30T09:42:59;100647.56;;;35.05;29.52
59493;BME280;45497;43.996;22.876;2023-07-30T09:45:25;100645.25;;;35.07;29.36
59493;BME280;45497;43.996;22.876;2023-07-30T09:47:52;100637.25;;;35.14;29.42
59493;BME280;45497;43.996;22.876;2023-07-30T09:50:19;100636.34;;;35.10;28.41
59493;BME280;45497;43.996;22.876;2023-07-30T09:52:45;100639.00;;;35.19;28.30
59493;BME280;45497;43.996;22.876;2023-07-30T09:55:11;100622.44;;;35.28;28.28
59493;BME280;45497;43.996;22.876;2023-07-30T09:57:37;100626.69;;;35.37;28.19
59493;BME280;45497;43.996;22.876;2023-07-30T10:00:05;100618.41;;;35.37;27.89
59493;BME280;45497;43.996;22.876;2023-07-30T10:02:32;100618.13;;;35.51;27.86
59493;BME280;45497;43.996;22.876;2023-07-30T10:05:01;100609.84;;;35.51;27.47
59493;BME280;45497;43.996;22.876;2023-07-30T10:07:29;100609.72;;;35.48;27.48
59493;BME280;45497;43.996;22.876;2023-07-30T10:09:58;100609.25;;;35.46;26.76
59493;BME280;45497;43.996;22.876;2023-07-30T10:12:29;100603.38;;;35.35;27.24
59493;BME280;45497;43.996;22.876;2023-07-30T10:14:56;100601.66;;;35.42;27.39
59493;BME280;45497;43.996;22.876;2023-07-30T10:17:22;100597.88;;;35.35;27.62
59493;BME280;45497;43.996;22.876;2023-07-30T10:19:49;100592.56;;;35.30;27.27
59493;BME280;45497;43.996;22.876;2023-07-30T10:27:26;100588.13;;;35.50;28.05
59493;BME280;45497;43.996;22.876;2023-07-30T10:30:11;100581.81;;;35.49;27.76
59493;BME280;45497;43.996;22.876;2023-07-30T10:38:29;100568.97;;;35.66;28.14
59493;BME280;45497;43.996;22.876;2023-07-30T10:41:11;100563.34;;;35.62;27.76
59493;BME280;45497;43.996;22.876;2023-07-30T10:43:42;100559.97;;;35.69;27.47
59493;BME280;45497;43.996;22.876;2023-07-30T10:46:12;100558.28;;;35.64;27.70
59493;BME280;45497;43.996;22.876;2023-07-30T10:48:39;100559.19;;;35.68;27.90
59493;BME280;45497;43.996;22.876;2023-07-30T10:51:08;100560.19;;;35.64;27.82
59493;BME280;45497;43.996;22.876;2023-07-30T10:53:34;100547.69;;;35.66;27.54
59493;BME280;45497;43.996;22.876;2023-07-30T10:56:03;100543.25;;;35.74;27.84
59493;BME280;45497;43.996;22.876;2023-07-30T10:58:31;100545.53;;;35.84;27.86
59493;BME280;45497;43.996;22.876;2023-07-30T11:00:56;100543.81;;;35.92;27.97
59493;BME280;45497;43.996;22.876;2023-07-30T11:03:26;100554.16;;;35.95;27.46
59493;BME280;45497;43.996;22.876;2023-07-30T11:05:55;100537.84;;;35.90;27.23
59493;BME280;45497;43.996;22.876;2023-07-30T11:08:39;100538.75;;;35.69;27.47
59493;BME280;45497;43.996;22.876;2023-07-30T11:11:06;100533.94;;;35.78;27.34
59493;BME280;45497;43.996;22.876;2023-07-30T11:13:37;100530.34;;;35.78;27.03
59493;BME280;45497;43.996;22.876;2023-07-30T11:16:05;100526.56;;;35.83;26.88
59493;BME280;45497;43.996;22.876;2023-07-30T11:18:31;100526.34;;;35.88;26.71
59493;BME280;45497;43.996;22.876;2023-07-30T11:21:06;100517.63;;;35.86;26.96
59493;BME280;45497;43.996;22.876;2023-07-30T11:23:33;100521.84;;;35.83;27.06
59493;BME280;45497;43.996;22.876;2023-07-30T11:26:01;100517.63;;;35.86;27.05
59493;BME280;45497;43.996;22.876;2023-07-30T11:28:34;100509.69;;;35.84;27.06
59493;BME280;45497;43.996;22.876;2023-07-30T11:31:11;100510.47;;;35.85;26.98
59493;BME280;45497;43.996;22.876;2023-07-30T11:33:39;100508.28;;;35.90;26.88
59493;BME280;45497;43.996;22.876;2023-07-30T11:36:06;100497.38;;;35.94;26.98
59493;BME280;45497;43.996;22.876;2023-07-30T11:38:32;100496.44;;;36.02;26.86
59493;BME280;45497;43.996;22.876;2023-07-30T11:40:58;100497.47;;;35.97;26.92
59493;BME280;45497;43.996;22.876;2023-07-30T11:43:24;100494.59;;;35.94;26.89
59493;BME280;45497;43.996;22.876;2023-07-30T11:46:12;100490.03;;;35.98;27.25
59493;BME280;45497;43.996;22.876;2023-07-30T11:48:39;100485.97;;;36.08;26.74
59493;BME280;45497;43.996;22.876;2023-07-30T11:51:05;100486.63;;;36.17;26.93
59493;BME280;45497;43.996;22.876;2023-07-30T11:53:49;100484.66;;;36.30;26.90
59493;BME280;45497;43.996;22.876;2023-07-30T11:56:27;100479.69;;;36.35;27.20
59493;BME280;45497;43.996;22.876;2023-07-30T11:58:57;100479.69;;;36.35;27.42
59493;BME280;45497;43.996;22.876;2023-07-30T12:01:25;100469.91;;;36.38;27.57
59493;BME280;45497;43.996;22.876;2023-07-30T12:03:57;100465.63;;;36.41;27.91
59493;BME280;45497;43.996;22.876;2023-07-30T12:06:23;100462.03;;;36.52;27.36
59493;BME280;45497;43.996;22.876;2023-07-30T12:08:49;100468.94;;;36.46;27.35
59493;BME280;45497;43.996;22.876;2023-07-30T12:11:17;100452.56;;;36.53;26.99
59493;BME280;45497;43.996;22.876;2023-07-30T12:13:46;100450.72;;;36.58;26.90
59493;BME280;45497;43.996;22.876;2023-07-30T12:16:13;100449.38;;;36.51;27.38
59493;BME280;45497;43.996;22.876;2023-07-30T12:18:39;100441.81;;;36.48;27.00
59493;BME280;45497;43.996;22.876;2023-07-30T12:21:06;100439.50;;;36.50;26.78
59493;BME280;45497;43.996;22.876;2023-07-30T12:23:33;100436.19;;;36.45;26.72
59493;BME280;45497;43.996;22.876;2023-07-30T12:25:59;100439.50;;;36.50;26.95
59493;BME280;45497;43.996;22.876;2023-07-30T12:28:24;100437.19;;;36.52;26.55
59493;BME280;45497;43.996;22.876;2023-07-30T12:30:50;100438.16;;;36.60;26.89
59493;BME280;45497;43.996;22.876;2023-07-30T12:33:16;100424.81;;;36.62;26.23
59493;BME280;45497;43.996;22.876;2023-07-30T12:35:42;100421.34;;;36.65;26.41
59493;BME280;45497;43.996;22.876;2023-07-30T12:38:07;100415.28;;;36.60;26.30
59493;BME280;45497;43.996;22.876;2023-07-30T12:40:33;100420.59;;;36.52;26.58
59493;BME280;45497;43.996;22.876;2023-07-30T12:43:02;100415.06;;;36.36;26.84
59493;BME280;45497;43.996;22.876;2023-07-30T12:45:31;100409.44;;;36.33;26.73
59493;BME280;45497;43.996;22.876;2023-07-30T12:47:57;100404.81;;;36.37;27.21